Time;durP1;ratioP1;P1;durP2;ratioP2;P2;SDS_P1;SDS_P2;PMS_P1;PMS_P2;Temp;Humidity;BMP_temperature;BMP_pressure;BME280_temperature;BME280_humidity;BME280_pressure;Samples;Min_cycle;Max_cycle;Signal;HPM_P1;HPM_P2
2022/08/25 00:01:30;;;;;;;46.13;18.17;;;22.30;99.90;;;;;;5053720;28;19892;-88
2022/08/25 00:03:57;;;;;;;36.05;17.70;;;22.30;99.90;;;;;;5054446;28;20064;-87
2022/08/25 00:06:23;;;;;;;42.55;18.15;;;22.30;99.90;;;;;;5051958;28;20048;-85
2022/08/25 00:08:50;;;;;;;50.10;17.58;;;22.30;99.90;;;;;;5034944;28;20033;-87
2022/08/25 00:11:18;;;;;;;43.95;18.88;;;22.30;99.90;;;;;;5070384;28;20025;-87
2022/08/25 00:13:47;;;;;;;45.25;18.52;;;22.20;99.90;;;;;;5076270;28;20060;-87
2022/08/25 00:16:16;;;;;;;45.15;19.25;;;22.20;99.90;;;;;;5063423;28;20020;-85
2022/08/25 00:18:47;;;;;;;49.72;19.38;;;22.20;99.90;;;;;;5062615;28;20032;-87
2022/08/25 00:21:14;;;;;;;46.38;18.92;;;22.20;99.90;;;;;;5071754;28;20025;-88
2022/08/25 00:23:41;;;;;;;44.97;19.85;;;22.20;99.90;;;;;;5071426;28;20029;-87
2022/08/25 00:26:08;;;;;;;33.72;18.85;;;22.10;99.90;;;;;;5052037;28;20044;-88
2022/08/25 00:28:34;;;;;;;47.20;19.35;;;22.20;99.90;;;;;;5050778;28;20048;-88
2022/08/25 00:31:00;;;;;;;38.33;19.00;;;22.10;99.90;;;;;;5051655;28;20036;-86
2022/08/25 00:33:29;;;;;;;42.05;18.58;;;22.10;99.90;;;;;;5069719;28;20447;-86
2022/08/25 00:35:56;;;;;;;44.13;19.63;;;22.10;99.90;;;;;;5069953;28;20036;-87
2022/08/25 00:38:23;;;;;;;37.55;18.48;;;22.10;99.90;;;;;;5067611;28;20021;-88
2022/08/25 00:41:04;;;;;;;41.70;18.27;;;22.10;99.90;;;;;;5066116;28;20524;-88
2022/08/25 00:43:36;;;;;;;40.63;18.20;;;22.10;99.90;;;;;;5048479;28;20025;-87
2022/08/25 00:46:03;;;;;;;39.00;18.45;;;22.10;99.90;;;;;;5050366;28;20116;-87
2022/08/25 00:48:29;;;;;;;39.45;18.58;;;22.10;99.90;;;;;;5067880;28;20468;-86
2022/08/25 00:50:55;;;;;;;42.95;17.13;;;22.10;99.90;;;;;;5067483;28;20029;-86
2022/08/25 00:55:47;;;;;;;45.60;19.70;;;22.00;99.90;;;;;;5041955;28;20127;-77
2022/08/25 00:58:20;;;;;;;49.15;19.65;;;22.00;99.90;;;;;;5038943;28;20077;-76
2022/08/25 01:00:51;;;;;;;39.03;18.02;;;22.00;99.90;;;;;;5037224;28;20046;-77
2022/08/25 01:03:18;;;;;;;40.75;17.23;;;22.00;99.90;;;;;;5038746;28;20568;-78
2022/08/25 01:05:46;;;;;;;40.08;18.10;;;22.10;99.90;;;;;;5036212;28;20036;-77
2022/08/25 01:08:13;;;;;;;50.35;17.17;;;22.10;99.90;;;;;;5036304;28;20033;-76
2022/08/25 01:10:43;;;;;;;40.90;17.92;;;22.10;99.90;;;;;;5037201;28;20544;-77
2022/08/25 01:13:36;;;;;;;51.28;18.42;;;22.10;99.90;;;;;;5037408;28;20038;-78
2022/08/25 01:16:02;;;;;;;35.15;18.77;;;22.10;99.90;;;;;;5038752;28;20036;-77
2022/08/25 01:18:40;;;;;;;46.58;18.20;;;22.10;99.90;;;;;;5037425;28;20025;-76
2022/08/25 01:21:06;;;;;;;43.22;17.75;;;22.00;99.90;;;;;;5035632;28;20034;-78
2022/08/25 01:23:32;;;;;;;42.78;17.63;;;22.00;99.90;;;;;;5036667;28;20496;-77
2022/08/25 01:26:14;;;;;;;43.90;17.55;;;22.00;99.90;;;;;;5037984;28;20132;-77
2022/08/25 01:29:19;;;;;;;44.53;18.02;;;21.90;99.90;;;;;;5036144;28;20029;-77
2022/08/25 01:31:28;;;;;;;41.35;19.05;;;21.90;99.90;;;;;;5037395;28;20048;-77
2022/08/25 01:33:55;;;;;;;48.13;18.55;;;21.90;99.90;;;;;;5034495;28;20021;-76
2022/08/25 01:36:22;;;;;;;41.35;18.58;;;21.90;99.90;;;;;;5034016;28;20025;-77
2022/08/25 01:38:49;;;;;;;44.45;18.98;;;21.90;99.90;;;;;;5035114;28;20018;-76
2022/08/25 01:41:24;;;;;;;39.47;17.88;;;21.90;99.90;;;;;;5035497;28;20021;-78
2022/08/25 01:43:50;;;;;;;37.63;19.48;;;21.90;99.90;;;;;;5033340;28;20037;-77
2022/08/25 01:46:15;;;;;;;40.08;18.05;;;21.90;99.90;;;;;;5033730;28;20026;-77
2022/08/25 01:48:41;;;;;;;43.53;19.88;;;21.90;99.90;;;;;;5033057;28;20567;-77
2022/08/25 01:51:07;;;;;;;43.33;19.00;;;21.80;99.90;;;;;;5033525;28;20053;-78
2022/08/25 01:53:33;;;;;;;39.03;18.20;;;21.80;99.90;;;;;;5034365;28;20036;-76
2022/08/25 01:56:04;;;;;;;43.20;18.70;;;21.80;99.90;;;;;;5033821;28;20029;-77
2022/08/25 01:58:33;;;;;;;38.67;18.80;;;21.80;99.90;;;;;;5033889;28;20521;-77
2022/08/25 02:01:01;;;;;;;39.75;18.25;;;21.80;99.90;;;;;;5036039;28;20025;-77
2022/08/25 02:03:28;;;;;;;41.13;19.95;;;21.80;99.90;;;;;;5036503;28;20469;-77
2022/08/25 02:05:55;;;;;;;41.00;18.80;;;21.80;99.90;;;;;;5035099;28;20661;-76
2022/08/25 02:08:22;;;;;;;38.67;19.02;;;21.70;99.90;;;;;;5033423;28;20030;-77
2022/08/25 02:10:48;;;;;;;39.10;18.85;;;21.70;99.90;;;;;;5032716;28;20026;-77
2022/08/25 02:13:15;;;;;;;37.03;18.60;;;21.70;99.90;;;;;;5033042;28;20478;-77
2022/08/25 02:15:51;;;;;;;42.90;19.45;;;21.70;99.90;;;;;;5033314;28;20026;-77
2022/08/25 02:18:17;;;;;;;43.45;17.70;;;21.60;99.90;;;;;;5036929;28;20036;-78
2022/08/25 02:20:43;;;;;;;40.03;19.92;;;21.60;99.90;;;;;;5038119;28;20565;-76
2022/08/25 02:23:09;;;;;;;44.35;18.80;;;21.60;99.90;;;;;;5037534;28;20030;-76
2022/08/25 02:25:37;;;;;;;41.60;18.88;;;21.60;99.90;;;;;;5036782;28;20481;-77
2022/08/25 02:28:04;;;;;;;44.58;18.92;;;21.60;99.90;;;;;;5036276;28;20087;-76
2022/08/25 02:30:29;;;;;;;36.45;18.00;;;21.60;99.90;;;;;;5037131;28;20086;-77
2022/08/25 02:32:56;;;;;;;37.17;17.95;;;21.60;99.90;;;;;;5037979;28;20064;-77
2022/08/25 02:35:22;;;;;;;42.17;19.35;;;21.60;99.90;;;;;;5039778;28;20408;-77
2022/08/25 02:37:50;;;;;;;38.72;18.33;;;21.60;99.90;;;;;;5038084;28;20036;-77
2022/08/25 02:40:17;;;;;;;36.05;18.45;;;21.50;99.90;;;;;;5034120;28;20022;-77
2022/08/25 02:42:43;;;;;;;38.83;19.15;;;21.50;99.90;;;;;;5035001;28;20025;-75
2022/08/25 02:45:09;;;;;;;36.33;18.35;;;21.60;99.90;;;;;;5041382;28;20029;-76
2022/08/25 02:47:36;;;;;;;43.72;18.23;;;21.60;99.90;;;;;;5035486;28;20029;-76
2022/08/25 02:50:04;;;;;;;37.17;18.23;;;21.60;99.90;;;;;;5036048;28;20108;-77
2022/08/25 02:52:30;;;;;;;41.42;19.42;;;21.70;99.90;;;;;;5037899;28;20477;-77
2022/08/25 02:54:56;;;;;;;43.75;18.33;;;21.70;99.90;;;;;;5038882;28;20025;-77
2022/08/25 02:57:22;;;;;;;43.00;19.05;;;21.70;99.90;;;;;;5034839;28;20033;-78
2022/08/25 02:59:47;;;;;;;36.42;17.85;;;21.70;99.90;;;;;;5033230;28;20025;-78
2022/08/25 03:02:15;;;;;;;34.53;18.20;;;21.70;99.90;;;;;;5035197;28;20041;-76
2022/08/25 03:04:42;;;;;;;43.95;18.00;;;21.70;99.90;;;;;;5035139;28;20032;-78
2022/08/25 03:07:09;;;;;;;40.80;18.02;;;21.70;99.90;;;;;;5033486;28;20029;-76
2022/08/25 03:09:35;;;;;;;41.13;18.40;;;21.70;99.90;;;;;;5032982;28;20022;-77
2022/08/25 03:12:01;;;;;;;33.67;17.95;;;21.80;99.90;;;;;;5050334;28;20073;-76
2022/08/25 03:14:26;;;;;;;39.25;18.20;;;21.80;99.90;;;;;;5054797;28;20085;-76
2022/08/25 03:16:52;;;;;;;36.72;18.77;;;21.70;99.90;;;;;;5051130;28;20034;-76
2022/08/25 03:19:18;;;;;;;38.80;19.40;;;21.80;99.90;;;;;;5048153;28;20018;-76
2022/08/25 03:21:44;;;;;;;36.10;17.42;;;21.70;99.90;;;;;;5048816;28;20026;-76
2022/08/25 03:24:10;;;;;;;38.28;18.65;;;21.70;99.90;;;;;;5040056;28;20457;-77
2022/08/25 03:26:53;;;;;;;33.30;18.77;;;21.70;99.90;;;;;;5035021;28;20041;-76
2022/08/25 03:29:25;;;;;;;35.95;18.45;;;21.70;99.90;;;;;;5036928;28;20030;-77
2022/08/25 03:31:53;;;;;;;35.63;17.00;;;21.60;99.90;;;;;;5036965;28;20037;-77
2022/08/25 03:34:20;;;;;;;34.50;18.65;;;21.70;99.90;;;;;;5033242;28;20079;-77
2022/08/25 03:36:47;;;;;;;37.58;18.35;;;21.70;99.90;;;;;;5036336;28;20044;-77
2022/08/25 03:39:14;;;;;;;34.53;18.40;;;21.70;99.90;;;;;;5036761;28;20021;-78
2022/08/25 03:41:40;;;;;;;33.17;18.33;;;21.70;99.90;;;;;;5037400;28;20025;-77
2022/08/25 03:44:08;;;;;;;38.97;18.35;;;21.80;99.90;;;;;;5038224;28;20037;-75
2022/08/25 03:46:40;;;;;;;39.40;18.90;;;21.80;99.90;;;;;;5039137;28;20092;-77
2022/08/25 03:49:10;;;;;;;35.45;18.35;;;21.80;99.90;;;;;;5038646;28;20120;-76
2022/08/25 03:51:41;;;;;;;32.85;18.35;;;21.80;99.90;;;;;;5040453;28;20029;-77
2022/08/25 03:54:09;;;;;;;43.38;19.80;;;21.80;99.90;;;;;;5042310;28;20029;-77
2022/08/25 03:56:36;;;;;;;37.60;21.30;;;21.70;99.90;;;;;;5042550;28;20025;-77
2022/08/25 03:59:02;;;;;;;43.75;20.02;;;21.60;99.90;;;;;;5040227;28;20487;-77
2022/08/25 04:01:28;;;;;;;46.42;20.73;;;21.60;99.90;;;;;;5041770;28;20017;-77
2022/08/25 04:03:55;;;;;;;36.50;19.70;;;21.50;99.90;;;;;;5041421;28;20071;-77
2022/08/25 04:06:20;;;;;;;49.05;22.27;;;21.50;99.90;;;;;;5039676;28;20107;-77
2022/08/25 04:08:47;;;;;;;42.15;21.73;;;21.40;99.90;;;;;;5041547;28;20468;-76
2022/08/25 04:11:16;;;;;;;38.30;21.55;;;21.40;99.90;;;;;;5038604;28;20100;-77
2022/08/25 04:13:44;;;;;;;41.88;22.63;;;21.30;99.90;;;;;;5039965;28;20684;-78
2022/08/25 04:16:17;;;;;;;38.25;22.15;;;21.30;99.90;;;;;;5039677;28;20112;-76
2022/08/25 04:18:43;;;;;;;37.75;20.23;;;21.30;99.90;;;;;;5046334;28;20389;-77
2022/08/25 04:21:10;;;;;;;44.65;22.48;;;21.30;99.90;;;;;;5057081;28;20022;-78
2022/08/25 04:23:39;;;;;;;50.85;22.35;;;21.30;99.90;;;;;;5056871;28;20026;-78
2022/08/25 04:26:17;;;;;;;44.50;22.67;;;21.30;99.90;;;;;;5045105;28;20112;-79
2022/08/25 04:28:43;;;;;;;39.85;20.23;;;21.30;99.90;;;;;;5043755;28;20029;-77
2022/08/25 04:31:11;;;;;;;35.85;20.60;;;21.30;99.90;;;;;;5040012;28;20108;-77
2022/08/25 04:33:37;;;;;;;32.65;20.15;;;21.40;99.90;;;;;;5042677;28;20033;-78
2022/08/25 04:36:10;;;;;;;34.08;20.45;;;21.40;99.90;;;;;;5041249;28;20039;-79
2022/08/25 04:38:37;;;;;;;36.50;18.80;;;21.40;99.90;;;;;;5042199;28;20030;-78
2022/08/25 04:41:04;;;;;;;47.38;20.83;;;21.50;99.90;;;;;;5044574;28;20081;-78
2022/08/25 04:43:32;;;;;;;49.47;21.80;;;21.60;99.90;;;;;;5045680;28;20033;-77
2022/08/25 04:45:58;;;;;;;31.35;18.30;;;21.60;99.90;;;;;;5043219;28;20049;-78
2022/08/25 04:48:25;;;;;;;32.13;19.48;;;21.60;99.90;;;;;;5044087;28;20029;-79
2022/08/25 04:50:51;;;;;;;35.70;18.58;;;21.70;99.90;;;;;;5041597;28;20440;-77
2022/08/25 04:53:18;;;;;;;44.25;19.05;;;21.80;99.90;;;;;;5043885;28;20041;-79
2022/08/25 04:55:46;;;;;;;39.95;20.50;;;21.80;99.90;;;;;;5044858;28;20409;-77
2022/08/25 04:58:14;;;;;;;39.90;20.00;;;21.80;99.90;;;;;;5041340;28;20050;-76
2022/08/25 05:00:40;;;;;;;38.53;20.77;;;21.80;99.90;;;;;;5041311;28;20036;-77
2022/08/25 05:03:07;;;;;;;40.75;21.15;;;21.80;99.90;;;;;;5041960;28;20056;-77
2022/08/25 05:05:36;;;;;;;40.70;19.65;;;21.90;99.90;;;;;;5027981;28;20034;-77
2022/08/25 05:08:04;;;;;;;37.60;19.17;;;21.90;99.90;;;;;;5050077;28;20093;-77
2022/08/25 05:10:30;;;;;;;39.47;19.65;;;21.90;99.90;;;;;;5035666;28;20097;-79
2022/08/25 05:12:55;;;;;;;45.08;20.05;;;21.90;99.90;;;;;;5033870;28;20037;-77
2022/08/25 05:18:25;;;;;;;36.03;18.05;;;22.10;99.90;;;;;;4976847;28;20081;-77
2022/08/25 05:20:55;;;;;;;32.15;18.23;;;22.20;99.90;;;;;;5027115;28;20084;-77
2022/08/25 05:23:22;;;;;;;38.20;19.08;;;22.30;99.90;;;;;;5035448;28;20026;-77
2022/08/25 05:25:50;;;;;;;35.60;19.05;;;22.40;99.90;;;;;;5035102;28;20045;-77
2022/08/25 05:28:17;;;;;;;43.40;19.08;;;22.40;99.90;;;;;;5033406;28;20033;-78
2022/08/25 05:30:43;;;;;;;36.60;18.58;;;22.60;99.90;;;;;;5029214;28;20066;-77
2022/08/25 05:33:11;;;;;;;36.20;18.23;;;22.70;99.90;;;;;;5034138;28;20025;-77
2022/08/25 05:35:37;;;;;;;36.72;17.83;;;22.80;99.90;;;;;;5030670;28;20036;-78
2022/08/25 05:38:04;;;;;;;38.10;18.30;;;23.00;99.90;;;;;;5028574;28;20034;-78
2022/08/25 05:40:30;;;;;;;29.48;17.55;;;23.10;99.90;;;;;;5030435;28;20025;-78
2022/08/25 05:42:57;;;;;;;31.20;16.55;;;23.30;99.90;;;;;;5032113;28;20025;-78
2022/08/25 05:45:23;;;;;;;35.90;16.98;;;23.30;99.90;;;;;;5031936;28;20054;-79
2022/08/25 05:47:49;;;;;;;36.13;17.25;;;23.30;99.90;;;;;;5033464;28;20021;-78
2022/08/25 05:50:16;;;;;;;31.17;16.85;;;23.30;99.90;;;;;;5033455;28;20057;-77
2022/08/25 05:52:42;;;;;;;30.33;16.88;;;23.20;99.90;;;;;;5032953;28;20025;-78
2022/08/25 05:55:09;;;;;;;40.00;17.73;;;23.20;99.90;;;;;;5032777;28;20147;-78
2022/08/25 05:57:34;;;;;;;38.45;18.67;;;23.10;99.90;;;;;;5041391;28;20029;-79
2022/08/25 06:00:01;;;;;;;35.40;17.85;;;23.00;99.90;;;;;;5039927;28;20025;-77
2022/08/25 06:02:47;;;;;;;31.48;17.80;;;23.00;99.90;;;;;;5047984;28;20075;-78
2022/08/25 06:05:15;;;;;;;32.25;17.27;;;22.90;99.90;;;;;;5058088;28;20124;-77
2022/08/25 06:07:40;;;;;;;37.72;17.75;;;22.90;99.90;;;;;;5038389;28;20025;-79
2022/08/25 06:10:12;;;;;;;35.20;19.15;;;22.90;99.90;;;;;;5040353;28;20497;-78
2022/08/25 06:12:40;;;;;;;37.33;17.23;;;22.90;99.90;;;;;;5025517;28;20601;-79
2022/08/25 06:15:06;;;;;;;33.53;17.85;;;22.90;99.90;;;;;;5051085;28;20472;-78
2022/08/25 06:17:39;;;;;;;38.83;18.13;;;23.00;99.90;;;;;;5054809;28;20030;-77
2022/08/25 06:20:08;;;;;;;35.47;18.67;;;23.10;99.90;;;;;;5051587;28;20052;-79
2022/08/25 06:22:34;;;;;;;37.33;19.08;;;23.10;99.90;;;;;;5052410;28;20017;-76
2022/08/25 06:25:00;;;;;;;29.80;18.27;;;23.10;99.90;;;;;;5052856;28;20716;-76
2022/08/25 06:27:26;;;;;;;38.25;17.90;;;23.10;99.90;;;;;;5035370;28;20021;-77
2022/08/25 06:29:52;;;;;;;37.33;18.92;;;23.10;99.90;;;;;;5050516;28;20102;-76
2022/08/25 06:32:18;;;;;;;34.88;19.02;;;23.10;99.90;;;;;;5051438;28;20100;-77
2022/08/25 06:34:44;;;;;;;35.25;17.48;;;23.10;99.90;;;;;;5049132;28;20056;-77
2022/08/25 06:37:09;;;;;;;31.67;17.08;;;23.20;99.90;;;;;;5051811;28;20112;-77
2022/08/25 06:39:35;;;;;;;38.88;16.83;;;23.30;99.90;;;;;;5048120;28;20477;-77
2022/08/25 06:42:01;;;;;;;33.53;16.90;;;23.40;99.90;;;;;;5045971;28;20028;-78
2022/08/25 06:44:28;;;;;;;40.35;18.88;;;23.40;99.90;;;;;;5050168;28;20055;-77
2022/08/25 06:46:54;;;;;;;29.55;16.90;;;23.50;99.90;;;;;;5053483;28;20666;-77
2022/08/25 06:49:20;;;;;;;39.97;17.05;;;23.40;99.90;;;;;;5057878;28;20136;-78
2022/08/25 06:51:46;;;;;;;46.35;18.38;;;23.40;99.90;;;;;;5047140;28;20039;-79
2022/08/25 06:54:12;;;;;;;34.65;18.77;;;23.50;99.90;;;;;;5057353;28;20097;-78
2022/08/25 06:56:41;;;;;;;37.08;17.95;;;23.50;99.90;;;;;;5056398;28;20021;-78
2022/08/25 06:59:09;;;;;;;29.65;16.98;;;23.60;99.90;;;;;;5053902;28;20025;-77
2022/08/25 07:01:35;;;;;;;44.20;18.23;;;23.60;99.90;;;;;;5185248;22;20041;-88
2022/08/25 07:04:04;;;;;;;36.70;17.63;;;23.70;99.90;;;;;;5054255;28;20037;-89
2022/08/25 07:06:34;;;;;;;36.83;17.35;;;23.70;99.90;;;;;;5022088;28;20055;-88
2022/08/25 07:09:02;;;;;;;32.95;16.77;;;23.80;99.90;;;;;;5038689;28;20030;-89
2022/08/25 07:11:28;;;;;;;30.80;18.50;;;23.80;99.90;;;;;;5025933;28;20003;-88
2022/08/25 07:13:54;;;;;;;43.00;19.40;;;24.00;99.90;;;;;;5021365;28;20041;-89
2022/08/25 07:16:20;;;;;;;36.45;16.90;;;24.10;99.90;;;;;;5004075;28;20086;-89
2022/08/25 07:18:47;;;;;;;36.45;16.92;;;24.10;99.90;;;;;;5004919;28;20101;-89
2022/08/25 07:21:13;;;;;;;43.05;18.27;;;24.10;99.90;;;;;;5004608;28;20023;-88
2022/08/25 07:23:40;;;;;;;32.30;18.30;;;24.20;99.90;;;;;;5004567;28;20086;-92
2022/08/25 07:26:18;;;;;;;38.58;17.30;;;24.20;99.90;;;;;;5020861;28;20054;-88
2022/08/25 07:28:44;;;;;;;35.08;17.92;;;24.20;99.90;;;;;;5004530;28;20085;-89
2022/08/25 07:31:10;;;;;;;34.53;17.25;;;24.30;99.90;;;;;;5004460;28;20083;-89
2022/08/25 07:33:36;;;;;;;37.13;17.30;;;24.70;99.90;;;;;;5003203;28;20031;-89
2022/08/25 07:36:03;;;;;;;28.92;16.25;;;25.00;99.90;;;;;;5002300;28;20011;-90
2022/08/25 07:38:29;;;;;;;37.33;17.48;;;25.20;99.90;;;;;;5019728;28;20058;-89
2022/08/25 07:41:02;;;;;;;32.38;16.42;;;25.50;99.90;;;;;;4985624;28;20041;-87
2022/08/25 07:43:28;;;;;;;33.17;17.38;;;25.70;99.90;;;;;;5001280;28;20041;-89
2022/08/25 07:45:54;;;;;;;31.95;16.75;;;25.80;99.90;;;;;;4989913;28;20030;-89
2022/08/25 07:48:21;;;;;;;34.63;18.45;;;25.70;99.90;;;;;;5019515;28;20026;-90
2022/08/25 07:50:47;;;;;;;30.00;16.63;;;25.50;99.90;;;;;;5037420;28;20029;-89
2022/08/25 07:53:15;;;;;;;41.70;19.67;;;25.40;99.90;;;;;;5040295;28;20025;-90
2022/08/25 07:55:41;;;;;;;43.33;18.70;;;25.20;99.90;;;;;;5013203;28;20066;-89
2022/08/25 07:58:08;;;;;;;34.25;16.75;;;25.20;99.90;;;;;;5022241;28;20014;-89
2022/08/25 08:00:36;;;;;;;34.92;18.45;;;25.30;99.90;;;;;;5022068;28;20018;-89
2022/08/25 08:03:04;;;;;;;33.50;17.60;;;25.50;99.90;;;;;;5038686;28;20060;-89
2022/08/25 08:05:30;;;;;;;39.10;17.75;;;25.90;99.90;;;;;;5037463;28;20030;-87
2022/08/25 08:07:56;;;;;;;31.58;17.13;;;26.20;99.90;;;;;;5036350;28;20034;-87
2022/08/25 08:10:24;;;;;;;30.48;16.25;;;26.40;99.90;;;;;;5019267;28;20010;-87
2022/08/25 08:12:51;;;;;;;36.55;16.02;;;26.50;99.90;;;;;;5037816;28;20014;-88
2022/08/25 08:15:18;;;;;;;42.78;17.30;;;26.30;99.90;;;;;;5004172;28;20022;-88
2022/08/25 08:17:44;;;;;;;38.67;17.48;;;25.90;99.90;;;;;;5037525;28;20041;-88
2022/08/25 08:20:11;;;;;;;40.28;18.20;;;25.60;99.90;;;;;;5038355;28;20025;-86
2022/08/25 08:22:40;;;;;;;36.35;17.55;;;25.40;99.90;;;;;;5024313;28;20022;-87
2022/08/25 08:25:08;;;;;;;34.97;17.92;;;25.50;99.90;;;;;;5037641;28;20041;-88
2022/08/25 08:27:34;;;;;;;32.72;17.52;;;25.60;99.90;;;;;;5037458;28;20045;-88
2022/08/25 08:30:01;;;;;;;43.75;16.70;;;25.60;99.90;;;;;;5038281;28;20010;-89
2022/08/25 08:32:27;;;;;;;33.13;17.02;;;25.40;99.90;;;;;;5038191;28;20094;-88
2022/08/25 08:34:53;;;;;;;30.13;15.93;;;25.50;99.90;;;;;;5038378;28;20025;-89
2022/08/25 08:37:21;;;;;;;34.42;16.00;;;25.60;99.90;;;;;;5034948;28;20358;-88
2022/08/25 08:39:47;;;;;;;28.27;15.63;;;25.80;99.90;;;;;;5035085;28;20017;-89
2022/08/25 08:42:17;;;;;;;32.35;15.95;;;25.90;99.90;;;;;;5018115;28;20041;-87
2022/08/25 08:44:54;;;;;;;38.45;17.15;;;26.00;99.90;;;;;;5035856;28;20026;-87
2022/08/25 08:47:23;;;;;;;34.90;15.82;;;26.30;99.90;;;;;;5034893;28;20083;-88
2022/08/25 08:50:09;;;;;;;38.92;16.40;;;26.40;99.90;;;;;;5037951;28;20068;-88
2022/08/25 08:52:43;;;;;;;29.88;15.95;;;26.20;99.90;;;;;;5038170;28;20045;-87
2022/08/25 08:55:25;;;;;;;28.05;15.73;;;26.10;99.90;;;;;;5039235;28;20042;-85
2022/08/25 08:57:54;;;;;;;40.35;16.00;;;26.00;99.90;;;;;;5037305;28;20097;-87
2022/08/25 09:00:21;;;;;;;31.70;14.52;;;25.90;99.90;;;;;;5037900;28;20037;-88
2022/08/25 09:02:57;;;;;;;29.65;15.23;;;25.90;99.90;;;;;;5036912;28;20030;-87
2022/08/25 09:05:27;;;;;;;34.35;14.60;;;26.20;99.90;;;;;;5037764;28;20097;-85
2022/08/25 09:08:05;;;;;;;32.70;13.25;;;26.70;99.90;;;;;;5036703;28;20097;-87
2022/08/25 09:11:00;;;;;;;31.10;13.32;;;27.10;99.90;;;;;;5053956;28;20085;-87
2022/08/25 09:13:44;;;;;;;32.53;11.85;;;27.60;99.90;;;;;;5016653;28;20114;-87
2022/08/25 09:16:56;;;;;;;36.58;12.38;;;27.70;99.90;;;;;;5043288;28;20112;-87
2022/08/25 09:19:30;;;;;;;26.95;11.77;;;27.50;99.90;;;;;;5035367;28;20109;-87
2022/08/25 09:22:35;;;;;;;28.83;11.20;;;27.60;99.90;;;;;;5055238;28;20020;-88
2022/08/25 09:25:19;;;;;;;30.98;12.48;;;27.90;99.90;;;;;;4999201;28;20092;-86
2022/08/25 09:27:59;;;;;;;29.02;11.38;;;28.30;99.90;;;;;;5050344;28;20048;-87
2022/08/25 09:30:31;;;;;;;31.08;11.52;;;28.40;99.90;;;;;;5035780;28;20036;-86
2022/08/25 09:33:02;;;;;;;26.63;10.60;;;29.10;99.90;;;;;;5034325;28;20029;-86
2022/08/25 09:35:38;;;;;;;22.70;11.15;;;29.60;99.90;;;;;;5034545;28;20045;-87
2022/08/25 09:38:08;;;;;;;27.00;10.57;;;30.40;99.90;;;;;;5031871;28;20116;-88
2022/08/25 09:40:56;;;;;;;25.85;11.00;;;31.00;99.90;;;;;;5036239;28;20014;-87
2022/08/25 09:43:31;;;;;;;22.58;9.63;;;31.00;99.90;;;;;;5014381;28;20053;-88
2022/08/25 09:45:59;;;;;;;22.15;9.38;;;31.80;99.90;;;;;;5038322;28;20025;-86
2022/08/25 09:48:46;;;;;;;16.55;8.32;;;33.70;98.40;;;;;;5004353;28;20019;-85
2022/08/25 09:51:34;;;;;;;21.48;8.80;;;35.80;95.20;;;;;;5017654;28;20057;-87
2022/08/25 09:54:17;;;;;;;20.45;8.10;;;36.60;92.40;;;;;;5019924;28;20054;-87
2022/08/25 09:57:04;;;;;;;19.35;9.05;;;37.70;90.50;;;;;;5021868;28;20021;-87
2022/08/25 09:59:35;;;;;;;22.30;9.02;;;38.20;87.80;;;;;;5038618;28;20014;-87
2022/08/25 10:02:25;;;;;;;18.67;8.93;;;38.80;83.80;;;;;;5024836;28;20057;-88
2022/08/25 10:04:52;;;;;;;20.55;9.50;;;37.20;85.10;;;;;;5034867;28;20113;-87
2022/08/25 10:07:28;;;;;;;21.13;9.27;;;36.90;86.80;;;;;;5038018;28;20025;-87
2022/08/25 10:09:58;;;;;;;20.45;10.15;;;37.60;85.60;;;;;;5037540;28;20022;-88
2022/08/25 10:12:40;;;;;;;19.02;9.65;;;37.80;84.20;;;;;;5037981;28;20017;-87
2022/08/25 10:15:29;;;;;;;20.88;9.35;;;37.20;83.80;;;;;;5103447;22;20053;-87
2022/08/25 10:17:55;;;;;;;19.38;9.25;;;36.10;85.40;;;;;;5040225;28;20053;-87
2022/08/25 10:20:27;;;;;;;20.30;10.32;;;35.90;85.10;;;;;;5023599;28;20056;-88
2022/08/25 10:23:10;;;;;;;20.05;9.65;;;34.80;86.80;;;;;;5040426;28;20052;-89
2022/08/25 10:25:44;;;;;;;19.92;9.27;;;33.80;89.30;;;;;;5057525;28;20077;-90
2022/08/25 10:28:29;;;;;;;;;;;33.80;90.00;;;;;;5040386;28;20055;-89
2022/08/25 10:31:23;;;;;;;18.45;8.23;;;34.30;89.10;;;;;;5040308;28;19901;-85
2022/08/25 10:34:08;;;;;;;18.63;8.17;;;34.90;86.80;;;;;;5023820;28;20040;-88
2022/08/25 10:37:11;;;;;;;16.40;9.00;;;35.80;86.00;;;;;;5040449;28;20340;-88
2022/08/25 10:39:45;;;;;;;21.88;9.07;;;37.30;83.20;;;;;;5023271;28;20105;-88
2022/08/25 10:42:28;;;;;;;19.45;8.15;;;38.40;80.50;;;;;;5040062;28;20056;-88
2022/08/25 10:48:19;;;;;;;18.08;8.75;;;40.00;75.90;;;;;;5076391;28;20033;-88
2022/08/25 10:51:20;;;;;;;21.95;7.88;;;40.80;74.00;;;;;;5042993;28;20036;-87
2022/08/25 10:54:18;;;;;;;26.40;7.28;;;41.80;72.00;;;;;;5040784;28;20043;-87
2022/08/25 10:57:31;;;;;;;17.25;7.78;;;40.40;71.60;;;;;;5038352;28;20049;-87
2022/08/25 11:00:36;;;;;;;13.05;7.15;;;39.20;73.10;;;;;;5018414;28;20141;-88
2022/08/25 11:03:29;;;;;;;15.85;7.05;;;39.90;71.50;;;;;;5017503;28;20035;-88
2022/08/25 11:06:20;;;;;;;13.55;7.18;;;39.20;71.70;;;;;;5014832;28;20052;-88
2022/08/25 11:09:11;;;;;;;16.00;7.00;;;39.80;71.60;;;;;;5014967;28;20052;-87
2022/08/25 11:12:19;;;;;;;15.45;7.75;;;40.10;70.40;;;;;;5037606;28;20038;-89
2022/08/25 11:14:57;;;;;;;17.85;7.93;;;40.50;70.50;;;;;;5032873;28;20498;-89
2022/08/25 11:17:43;;;;;;;16.48;8.13;;;40.90;69.00;;;;;;5030708;28;20041;-89
2022/08/25 11:20:19;;;;;;;20.75;8.52;;;41.00;69.20;;;;;;5028497;28;20009;-88
2022/08/25 11:23:16;;;;;;;20.75;9.07;;;40.70;68.70;;;;;;5012650;28;20034;-87
2022/08/25 11:25:51;;;;;;;15.73;8.13;;;40.40;69.00;;;;;;5001940;28;20018;-87
2022/08/25 11:28:32;;;;;;;14.48;7.55;;;41.60;67.90;;;;;;5036079;28;20045;-88
2022/08/25 11:31:05;;;;;;;19.15;7.85;;;42.90;65.90;;;;;;5040141;28;20021;-89
2022/08/25 11:33:32;;;;;;;12.82;7.30;;;43.50;64.80;;;;;;5054363;28;20049;-87
2022/08/25 11:36:00;;;;;;;19.13;8.45;;;43.70;64.10;;;;;;5063316;28;20060;-88
2022/08/25 11:39:05;;;;;;;21.02;7.65;;;44.20;63.10;;;;;;5065264;28;20123;-88
2022/08/25 11:42:32;;;;;;;11.82;7.40;;;43.00;62.80;;;;;;5049867;28;20028;-88
2022/08/25 11:45:35;;;;;;;16.75;7.70;;;41.80;64.70;;;;;;5029982;28;20057;-88
2022/08/25 11:48:37;;;;;;;12.35;7.82;;;42.60;62.90;;;;;;5029641;28;20039;-88
2022/08/25 11:51:11;;;;;;;15.05;7.78;;;41.50;64.10;;;;;;5046579;28;20029;-89
2022/08/25 11:53:43;;;;;;;17.05;8.95;;;41.70;64.20;;;;;;5029554;28;20033;-88
2022/08/25 11:56:35;;;;;;;15.93;7.68;;;41.90;64.00;;;;;;5026337;28;20056;-88
2022/08/25 11:59:04;;;;;;;14.63;7.60;;;42.40;62.80;;;;;;5012267;28;20025;-87
2022/08/25 12:01:39;;;;;;;19.50;7.50;;;42.80;62.40;;;;;;5050163;28;20112;-87
2022/08/25 12:04:33;;;;;;;19.42;7.20;;;43.70;61.40;;;;;;5032196;28;20563;-88
2022/08/25 12:07:05;;;;;;;16.83;7.70;;;43.50;60.60;;;;;;5022138;28;20048;-88
2022/08/25 12:09:53;;;;;;;15.85;7.28;;;42.50;62.00;;;;;;5022330;28;20037;-88
2022/08/25 12:12:51;;;;;;;13.73;6.97;;;41.40;62.50;;;;;;5021851;28;20045;-87
2022/08/25 12:15:30;;;;;;;16.23;7.25;;;39.80;64.30;;;;;;5038306;28;20097;-87
2022/08/25 12:18:41;;;;;;;16.20;7.30;;;38.80;65.70;;;;;;5042221;28;20149;-87
2022/08/25 12:21:09;;;;;;;13.90;7.15;;;37.90;67.20;;;;;;5050218;28;20017;-87
2022/08/25 12:23:43;;;;;;;19.75;7.47;;;38.20;67.10;;;;;;5058743;28;20024;-88
2022/08/25 12:26:49;;;;;;;17.35;6.90;;;39.40;65.50;;;;;;5059805;28;20037;-86
2022/08/25 12:29:32;;;;;;;13.20;6.15;;;41.20;63.60;;;;;;5017722;28;20034;-88
2022/08/25 12:32:13;;;;;;;12.33;6.20;;;40.10;63.70;;;;;;5067096;28;20040;-87
2022/08/25 12:35:21;;;;;;;14.75;6.88;;;39.30;64.70;;;;;;5047029;28;20037;-87
2022/08/25 12:38:14;;;;;;;14.02;6.55;;;37.90;65.90;;;;;;5030919;28;20496;-89
2022/08/25 12:40:43;;;;;;;11.30;6.15;;;36.20;68.30;;;;;;5075208;28;20074;-87
2022/08/25 12:43:21;;;;;;;12.45;6.32;;;35.80;68.90;;;;;;5060033;28;20021;-88
2022/08/25 12:45:49;;;;;;;14.85;6.47;;;36.00;69.30;;;;;;5041521;28;20037;-88
2022/08/25 12:48:27;;;;;;;13.23;6.03;;;37.20;68.00;;;;;;5058457;28;20293;-87
2022/08/25 12:51:00;;;;;;;18.35;6.00;;;39.20;65.70;;;;;;5057672;28;20460;-88
2022/08/25 12:53:33;;;;;;;14.35;5.82;;;40.50;64.10;;;;;;5059044;28;20035;-88
2022/08/25 12:56:22;;;;;;;13.98;6.35;;;41.00;63.70;;;;;;5076493;28;20044;-87
2022/08/25 12:59:07;;;;;;;14.85;5.78;;;41.60;62.60;;;;;;5058217;28;20044;-88
2022/08/25 13:01:55;;;;;;;11.82;5.38;;;41.90;62.00;;;;;;5076505;22;20109;-82
2022/08/25 13:04:29;;;;;;;11.18;5.20;;;42.40;61.30;;;;;;5054172;28;20045;-81
2022/08/25 13:06:58;;;;;;;13.27;5.95;;;43.00;60.60;;;;;;5073821;28;20049;-82